Time;durP1;ratioP1;P1;durP2;ratioP2;P2;SDS_P1;SDS_P2;PMS_P1;PMS_P2;Temp;Humidity;BMP_temperature;BMP_pressure;BME280_temperature;BME280_humidity;BME280_pressure;Samples;Min_cycle;Max_cycle;Signal;HPM_P1;HPM_P2
2023/12/23 00:00:35;;;;;;;3.75;0.60;;;;;;;10.28;100.00;100012.69;8254477;28;20088;-57
2023/12/23 00:04:36;;;;;;;4.57;0.77;;;;;;;10.26;100.00;100006.59;8247825;28;20050;-58
2023/12/23 00:08:37;;;;;;;4.97;0.70;;;;;;;10.29;100.00;99998.19;8274266;28;20069;-59
2023/12/23 00:12:37;;;;;;;3.55;0.80;;;;;;;10.27;100.00;100000.19;8236250;28;20030;-55
2023/12/23 00:16:38;;;;;;;5.45;0.63;;;;;;;10.33;100.00;100015.81;8226299;28;20359;-56
2023/12/23 00:20:38;;;;;;;5.85;0.80;;;;;;;10.18;100.00;100044.31;8264037;28;20121;-54
2023/12/23 00:24:38;;;;;;;5.50;1.33;;;;;;;10.14;100.00;100032.13;8219433;28;20038;-56
2023/12/23 00:28:39;;;;;;;7.22;0.60;;;;;;;10.13;100.00;100033.13;8223080;28;20642;-58
2023/12/23 00:32:40;;;;;;;2.67;0.52;;;;;;;10.10;100.00;100030.72;8276159;28;20404;-57
2023/12/23 00:36:41;;;;;;;1.67;0.68;;;;;;;10.09;100.00;100007.41;8263652;28;20579;-55
2023/12/23 00:40:41;;;;;;;4.63;0.75;;;;;;;10.04;100.00;100020.50;8219516;28;20818;-57
2023/12/23 00:44:41;;;;;;;4.60;0.70;;;;;;;10.08;100.00;100019.22;8215837;28;20685;-57
2023/12/23 00:48:42;;;;;;;3.17;0.50;;;;;;;10.11;100.00;100018.91;8219496;28;20034;-56
2023/12/23 00:52:44;;;;;;;3.25;0.60;;;;;;;10.13;100.00;100035.84;8219099;28;20034;-54
2023/12/23 00:56:44;;;;;;;2.55;0.43;;;;;;;10.10;100.00;100024.47;8197024;28;20229;-57
2023/12/23 01:00:44;;;;;;;4.50;0.50;;;;;;;10.10;100.00;100014.53;8188387;28;20851;-55
2023/12/23 01:04:45;;;;;;;4.35;0.40;;;;;;;10.14;100.00;99994.31;8198723;28;20046;-57
2023/12/23 01:08:46;;;;;;;4.15;0.40;;;;;;;10.16;100.00;99997.72;8241997;28;20042;-57
2023/12/23 01:12:46;;;;;;;4.22;0.40;;;;;;;10.20;100.00;100004.50;8224553;28;20033;-57
2023/12/23 01:16:47;;;;;;;2.38;0.57;;;;;;;10.24;100.00;99989.69;8224401;28;20039;-57
2023/12/23 01:20:47;;;;;;;6.28;0.52;;;;;;;10.26;100.00;100009.31;8232629;28;20033;-56
2023/12/23 01:24:47;;;;;;;3.72;0.75;;;;;;;10.28;100.00;100011.88;8235042;28;20586;-57
2023/12/23 01:28:48;;;;;;;2.92;0.73;;;;;;;10.21;100.00;100006.19;8224392;28;20601;-57
2023/12/23 01:32:48;;;;;;;9.88;1.50;;;;;;;10.12;100.00;100004.41;8223921;28;20400;-58
2023/12/23 01:36:49;;;;;;;6.70;0.95;;;;;;;10.10;100.00;100002.84;8227472;28;20211;-56
2023/12/23 01:40:49;;;;;;;5.70;1.15;;;;;;;10.14;100.00;100010.50;8222475;28;20044;-56
2023/12/23 01:44:50;;;;;;;4.50;1.27;;;;;;;10.25;100.00;99998.66;8219994;28;20194;-57
2023/12/23 01:48:51;;;;;;;4.20;1.35;;;;;;;10.34;100.00;99978.84;8224065;28;20551;-56
2023/12/23 01:52:54;;;;;;;5.63;0.95;;;;;;;10.47;100.00;99999.09;8225392;28;20034;-56
2023/12/23 01:56:55;;;;;;;6.78;1.25;;;;;;;10.43;100.00;99980.63;8222037;28;20352;-55
2023/12/23 02:00:56;;;;;;;9.27;1.17;;;;;;;10.51;100.00;99976.16;8245128;28;20053;-57
2023/12/23 02:04:56;;;;;;;7.05;1.52;;;;;;;10.62;100.00;99975.94;8224559;28;20494;-57
2023/12/23 02:08:57;;;;;;;4.80;1.38;;;;;;;10.82;100.00;99980.16;8221596;28;20670;-58
2023/12/23 02:13:26;;;;;;;10.38;2.08;;;;;;;11.05;100.00;99975.13;8210431;28;20045;-57
2023/12/23 02:17:26;;;;;;;11.25;1.63;;;;;;;11.26;100.00;99972.91;8207661;28;20113;-55
2023/12/23 02:21:27;;;;;;;13.05;2.42;;;;;;;11.43;100.00;99967.47;8183298;28;20177;-54
2023/12/23 02:25:27;;;;;;;5.47;1.85;;;;;;;11.53;100.00;99972.78;8181500;28;20046;-56
2023/12/23 02:29:29;;;;;;;10.30;2.58;;;;;;;11.55;100.00;99958.06;8181644;28;20030;-54
2023/12/23 02:33:30;;;;;;;11.45;3.33;;;;;;;11.49;100.00;99964.09;8182251;28;20225;-55
2023/12/23 02:37:30;;;;;;;12.07;3.50;;;;;;;11.49;100.00;99969.53;8197714;28;20046;-56
2023/12/23 02:41:31;;;;;;;10.63;3.35;;;;;;;11.52;100.00;99963.78;8223841;28;20046;-59
2023/12/23 02:45:31;;;;;;;18.33;4.10;;;;;;;11.55;100.00;99963.47;8199662;28;20151;-56
2023/12/23 02:49:32;;;;;;;19.50;4.97;;;;;;;11.55;100.00;99958.06;8235970;28;20349;-57
2023/12/23 02:53:32;;;;;;;19.30;4.35;;;;;;;11.59;100.00;99948.59;8292246;28;20404;-58
2023/12/23 02:57:33;;;;;;;12.45;4.15;;;;;;;11.65;100.00;99953.41;8277463;28;20046;-57
2023/12/23 03:01:33;;;;;;;10.82;3.67;;;;;;;11.63;100.00;99947.31;8225304;28;20208;-59
2023/12/23 03:05:34;;;;;;;11.43;4.35;;;;;;;11.62;99.46;99937.47;8220897;28;20759;-56
2023/12/23 03:09:35;;;;;;;11.50;4.28;;;;;;;11.66;99.97;99943.44;8223609;28;20242;-59
2023/12/23 03:13:35;;;;;;;12.63;4.22;;;;;;;11.69;99.95;99924.97;8221143;28;20530;-58
2023/12/23 03:17:36;;;;;;;15.88;4.43;;;;;;;11.65;100.00;99931.75;8219603;28;20042;-58
2023/12/23 03:21:42;;;;;;;11.40;5.10;;;;;;;11.62;100.00;99907.69;8222574;28;20065;-58
2023/12/23 03:25:43;;;;;;;14.48;5.60;;;;;;;11.62;100.00;99923.94;8219343;28;20042;-58
2023/12/23 03:29:43;;;;;;;12.05;5.10;;;;;;;11.68;100.00;99920.59;8271458;28;20045;-57
2023/12/23 03:33:44;;;;;;;13.80;5.38;;;;;;;11.67;100.00;99899.94;8275552;28;20096;-57
2023/12/23 03:37:45;;;;;;;12.80;4.00;;;;;;;11.65;100.00;99898.44;8274323;28;20046;-57
2023/12/23 03:41:45;;;;;;;13.63;4.30;;;;;;;11.65;100.00;99903.84;8291749;28;20070;-58
2023/12/23 03:45:46;;;;;;;14.70;4.95;;;;;;;11.62;100.00;99894.16;8272898;28;20413;-57
2023/12/23 03:49:47;;;;;;;12.20;4.88;;;;;;;11.61;100.00;99887.03;8275349;28;20062;-58
2023/12/23 03:53:47;;;;;;;14.60;4.47;;;;;;;11.60;100.00;99893.47;8244307;28;20046;-56
2023/12/23 03:57:47;;;;;;;10.52;4.13;;;;;;;11.66;100.00;99892.84;8222733;28;20053;-55
2023/12/23 04:01:48;;;;;;;13.02;4.82;;;;;;;11.62;100.00;99894.16;8220392;28;20121;-56
2023/12/23 04:05:48;;;;;;;11.30;3.97;;;;;;;11.63;100.00;99876.94;8220862;28;20279;-56
2023/12/23 04:09:49;;;;;;;14.48;4.55;;;;;;;11.65;100.00;99872.19;8221122;28;20256;-55
2023/12/23 04:13:49;;;;;;;16.65;4.40;;;;;;;11.69;99.10;99872.72;8219125;28;20042;-56
2023/12/23 04:17:50;;;;;;;11.05;3.10;;;;;;;11.79;97.93;99868.84;8216372;28;20064;-56
2023/12/23 04:21:51;;;;;;;10.30;3.33;;;;;;;11.89;96.24;99864.13;8249946;28;20038;-58
2023/12/23 04:25:52;;;;;;;11.73;2.90;;;;;;;11.96;95.42;99853.50;8276140;28;20037;-56
2023/12/23 04:29:52;;;;;;;9.52;2.83;;;;;;;12.00;94.71;99848.59;8263012;28;20516;-54
2023/12/23 04:33:53;;;;;;;13.50;2.78;;;;;;;12.02;93.78;99847.44;8223221;28;20539;-56
2023/12/23 04:37:54;;;;;;;6.97;2.55;;;;;;;12.17;92.74;99850.31;8220093;28;20049;-56
2023/12/23 04:41:54;;;;;;;10.32;1.85;;;;;;;12.21;92.03;99857.09;8222449;28;20049;-57
2023/12/23 04:45:55;;;;;;;9.73;1.95;;;;;;;12.25;91.30;99837.63;8221318;28;20058;-57
2023/12/23 04:49:59;;;;;;;12.43;2.25;;;;;;;12.30;90.77;99847.97;8225946;28;20168;-57
2023/12/23 04:53:59;;;;;;;12.88;2.30;;;;;;;12.28;91.05;99831.00;8225838;28;20042;-57
2023/12/23 04:58:00;;;;;;;14.55;1.83;;;;;;;12.31;90.57;99814.41;8235484;28;20049;-59
2023/12/23 05:02:03;;;;;;;8.48;1.63;;;;;;;12.34;90.96;99824.91;8279039;28;20117;-59
2023/12/23 05:06:04;;;;;;;10.57;1.80;;;;;;;12.19;92.14;99810.34;8281050;28;20046;-63
2023/12/23 05:10:05;;;;;;;6.20;1.83;;;;;;;12.15;92.72;99809.00;8280240;28;20049;-59
2023/12/23 05:14:05;;;;;;;11.63;2.03;;;;;;;12.15;92.75;99814.41;8275478;28;20520;-60
2023/12/23 05:18:07;;;;;;;9.07;1.90;;;;;;;12.14;92.90;99793.75;8278149;28;20504;-58
2023/12/23 05:22:08;;;;;;;7.63;2.13;;;;;;;12.12;91.84;99793.06;8280111;28;20452;-60
2023/12/23 05:26:09;;;;;;;9.35;1.80;;;;;;;12.21;91.24;99789.34;8279979;28;20408;-58
2023/12/23 05:30:10;;;;;;;9.43;1.80;;;;;;;12.30;90.41;99791.03;8260193;28;20034;-55
2023/12/23 05:34:11;;;;;;;10.82;1.65;;;;;;;12.35;90.52;99781.38;8225506;28;20770;-57
2023/12/23 05:38:11;;;;;;;11.75;1.83;;;;;;;12.31;90.43;99790.03;8227401;28;20442;-58
2023/12/23 05:42:12;;;;;;;7.30;2.10;;;;;;;12.30;90.61;99791.91;8223424;28;20654;-57
2023/12/23 05:46:12;;;;;;;8.93;2.00;;;;;;;12.27;90.67;99775.13;8222535;28;20578;-57
2023/12/23 05:50:14;;;;;;;11.98;2.33;;;;;;;12.29;90.74;99775.81;8223681;28;20674;-56
2023/12/23 05:54:15;;;;;;;8.55;1.73;;;;;;;12.27;90.64;99780.53;8221681;28;20758;-56
2023/12/23 05:58:15;;;;;;;8.75;2.13;;;;;;;12.22;90.49;99758.50;8238078;28;20381;-60
2023/12/23 06:02:16;;;;;;;6.63;1.85;;;;;;;12.23;91.02;99765.66;8232511;28;20140;-58
2023/12/23 06:06:16;;;;;;;9.82;2.45;;;;;;;12.22;91.46;99762.09;8223545;28;20426;-54
2023/12/23 06:10:16;;;;;;;9.18;2.22;;;;;;;12.23;91.58;99776.50;8224838;28;20447;-54
2023/12/23 06:14:17;;;;;;;7.40;2.00;;;;;;;12.18;92.33;99793.25;8221479;28;20711;-55
2023/12/23 06:18:18;;;;;;;17.75;2.20;;;;;;;12.13;93.26;99781.22;8220811;28;20228;-55
2023/12/23 06:22:18;;;;;;;8.73;1.92;;;;;;;12.05;95.00;99794.75;8223391;28;20097;-54
2023/12/23 06:26:20;;;;;;;12.15;2.25;;;;;;;11.99;96.16;99792.72;8225164;28;20060;-56
2023/12/23 06:30:20;;;;;;;3.38;1.58;;;;;;;11.98;96.56;99808.13;8276266;28;20141;-57
2023/12/23 06:34:21;;;;;;;5.10;1.77;;;;;;;12.00;96.96;99799.81;8269882;28;20518;-56
2023/12/23 06:38:21;;;;;;;5.40;1.70;;;;;;;12.05;97.32;99821.84;8223210;28;20812;-56
2023/12/23 06:42:22;;;;;;;4.88;1.30;;;;;;;11.98;97.67;99821.66;8233001;28;20045;-55
2023/12/23 06:46:22;;;;;;;5.15;1.58;;;;;;;12.01;96.98;99807.78;8276989;28;20033;-57
2023/12/23 06:50:23;;;;;;;2.88;1.20;;;;;;;12.05;96.51;99794.75;8275521;28;20038;-56
2023/12/23 06:54:23;;;;;;;2.67;0.90;;;;;;;12.04;96.67;99790.38;8277072;28;20042;-56
2023/12/23 06:58:28;;;;;;;7.45;1.40;;;;;;;11.99;97.46;99787.31;8275788;28;20038;-55
2023/12/23 07:02:28;;;;;;;5.50;1.58;;;;;;;11.98;97.58;99791.03;8255420;28;20393;-57
2023/12/23 07:06:29;;;;;;;7.50;1.85;;;;;;;11.99;97.70;99809.81;8222194;28;20042;-57
2023/12/23 07:10:29;;;;;;;5.30;1.63;;;;;;;11.99;97.24;99787.31;8231434;28;20184;-57
2023/12/23 07:14:29;;;;;;;7.22;2.63;;;;;;;12.10;96.77;99787.00;8219166;28;20716;-57
2023/12/23 07:18:30;;;;;;;8.48;2.25;;;;;;;12.14;96.49;99791.88;8224841;28;20046;-57
2023/12/23 07:22:30;;;;;;;7.88;2.45;;;;;;;12.09;97.41;99804.25;8219190;28;20121;-57
2023/12/23 07:26:34;;;;;;;9.85;3.20;;;;;;;11.99;98.57;99795.44;8219424;28;20508;-57
2023/12/23 07:30:40;;;;;;;12.05;2.85;;;;;;;11.93;99.55;99811.31;8256391;28;20033;-57
2023/12/23 07:34:41;;;;;;;12.60;2.72;;;;;;;11.95;99.95;99813.03;8219404;28;20369;-55
2023/12/23 07:38:41;;;;;;;7.80;2.47;;;;;;;12.00;99.73;99799.81;8224492;28;20049;-57
2023/12/23 07:42:42;;;;;;;5.50;2.50;;;;;;;11.90;100.00;99795.41;8220598;28;20364;-56
2023/12/23 07:46:43;;;;;;;7.05;2.85;;;;;;;11.87;100.00;99803.84;8216197;28;20226;-56
2023/12/23 07:50:43;;;;;;;10.18;3.70;;;;;;;11.90;100.00;99805.41;8219530;28;20704;-56
2023/12/23 07:54:43;;;;;;;10.85;3.30;;;;;;;11.90;100.00;99811.66;8211640;28;20736;-59
2023/12/23 07:58:44;;;;;;;13.85;3.05;;;;;;;11.89;100.00;99809.13;8248827;28;20034;-55
2023/12/23 08:02:44;;;;;;;14.25;3.00;;;;;;;11.93;100.00;99809.63;8275585;28;20037;-56
2023/12/23 08:06:45;;;;;;;9.23;3.70;;;;;;;11.93;100.00;99812.34;8276050;28;20045;-57
2023/12/23 08:10:45;;;;;;;13.02;3.38;;;;;;;11.90;100.00;99833.31;8279800;28;20145;-56
2023/12/23 08:14:46;;;;;;;12.95;3.70;;;;;;;11.97;100.00;99816.41;8270458;28;20042;-57
2023/12/23 08:18:46;;;;;;;9.55;3.80;;;;;;;12.05;100.00;99829.97;8273840;28;20046;-56
2023/12/23 08:22:48;;;;;;;11.38;3.58;;;;;;;12.10;99.39;99822.22;8281276;28;20046;-56
2023/12/23 08:26:48;;;;;;;19.52;4.70;;;;;;;12.23;98.01;99827.97;8276913;28;20038;-55
2023/12/23 08:30:50;;;;;;;9.02;3.40;;;;;;;12.25;97.83;99804.25;8280131;28;20048;-54
2023/12/23 08:34:50;;;;;;;9.15;3.70;;;;;;;12.30;96.98;99815.44;8277343;28;20526;-56
2023/12/23 08:38:53;;;;;;;16.95;3.90;;;;;;;12.39;94.90;99804.44;8276558;28;20384;-56
2023/12/23 08:42:56;;;;;;;19.30;4.30;;;;;;;12.50;93.58;99792.41;8275107;28;20106;-57
2023/12/23 08:46:56;;;;;;;12.52;3.42;;;;;;;12.55;92.46;99795.44;8277101;28;20569;-55
2023/12/23 08:50:57;;;;;;;15.90;3.95;;;;;;;12.62;92.45;99796.44;8281844;28;20038;-55
2023/12/23 08:54:57;;;;;;;10.30;2.85;;;;;;;12.66;91.23;99795.09;8278436;28;20042;-56
2023/12/23 08:58:57;;;;;;;11.73;2.80;;;;;;;12.77;90.14;99816.44;8274235;28;20048;-57
2023/12/23 09:02:58;;;;;;;11.68;2.33;;;;;;;12.82;90.00;99808.63;8272050;28;20047;-57
2023/12/23 09:06:58;;;;;;;8.32;2.67;;;;;;;12.83;89.53;99815.75;8282912;28;20500;-57
2023/12/23 09:11:02;;;;;;;12.20;2.35;;;;;;;12.80;89.64;99799.81;8270400;28;20055;-60
2023/12/23 09:15:03;;;;;;;9.50;2.65;;;;;;;12.91;89.31;99824.72;8276687;28;20125;-57
2023/12/23 09:19:04;;;;;;;16.83;2.30;;;;;;;12.88;89.33;99813.38;8267707;28;20054;-61
2023/12/23 09:23:04;;;;;;;15.20;2.85;;;;;;;12.86;89.37;99823.53;8270773;28;20043;-58
2023/12/23 09:27:05;;;;;;;7.22;2.00;;;;;;;12.83;89.40;99842.88;8277233;28;20050;-58
2023/12/23 09:31:05;;;;;;;11.18;2.28;;;;;;;12.84;89.81;99860.84;8276647;28;20034;-59
2023/12/23 09:35:06;;;;;;;12.48;2.50;;;;;;;12.83;89.68;99848.28;8274669;28;20047;-57
2023/12/23 09:39:06;;;;;;;11.23;1.75;;;;;;;12.91;89.15;99851.00;8281329;28;20049;-56
2023/12/23 09:43:07;;;;;;;9.05;1.88;;;;;;;12.83;89.88;99851.88;8269408;28;20173;-56
2023/12/23 09:47:08;;;;;;;13.32;2.33;;;;;;;12.89;89.09;99858.47;8272993;28;20038;-56
2023/12/23 09:51:09;;;;;;;13.30;2.10;;;;;;;12.99;88.89;99853.72;8277213;28;20277;-58
2023/12/23 09:55:10;;;;;;;9.15;2.50;;;;;;;12.88;90.18;99857.63;8262219;28;20540;-57
2023/12/23 09:59:10;;;;;;;11.02;2.75;;;;;;;12.84;91.49;99866.28;8267754;28;20304;-55
2023/12/23 10:03:12;;;;;;;15.00;2.70;;;;;;;12.84;92.13;99866.28;8267641;28;20045;-55
2023/12/23 10:07:14;;;;;;;8.85;1.90;;;;;;;12.86;92.21;99875.06;8276166;28;20535;-56
2023/12/23 10:11:15;;;;;;;9.60;2.05;;;;;;;12.74;92.86;99871.88;8276248;28;20271;-55
2023/12/23 10:15:16;;;;;;;10.82;2.53;;;;;;;12.62;94.82;99883.22;8278300;28;20091;-56
2023/12/23 10:19:16;;;;;;;8.25;2.65;;;;;;;12.66;95.27;99884.59;8266824;28;20217;-57
2023/12/23 10:23:17;;;;;;;6.30;1.95;;;;;;;12.65;95.58;99880.16;8258824;28;20108;-57
2023/12/23 10:27:20;;;;;;;10.07;1.65;;;;;;;12.59;95.51;99886.28;8264629;28;20077;-55
2023/12/23 10:31:24;;;;;;;5.38;1.98;;;;;;;12.52;95.83;99877.13;8274487;28;20038;-56
2023/12/23 10:35:27;;;;;;;9.38;2.13;;;;;;;12.47;97.25;99890.34;8275144;28;20137;-57
2023/12/23 10:39:31;;;;;;;9.15;2.25;;;;;;;12.39;98.52;99898.47;8263270;28;20045;-56
2023/12/23 10:43:34;;;;;;;18.05;1.92;;;;;;;12.27;99.52;99889.81;8261408;28;20045;-59
2023/12/23 10:47:35;;;;;;;4.07;1.60;;;;;;;12.30;99.65;99883.19;8265105;28;20056;-57
2023/12/23 10:51:37;;;;;;;12.25;1.77;;;;;;;12.29;100.00;99892.34;8269414;28;20041;-57
2023/12/23 10:55:39;;;;;;;8.52;2.33;;;;;;;12.23;100.00;99882.19;8265316;28;20044;-55
2023/12/23 10:59:41;;;;;;;5.15;1.55;;;;;;;12.32;99.99;99883.88;8264577;28;20045;-56
2023/12/23 11:03:43;;;;;;;8.90;1.75;;;;;;;12.32;99.36;99865.75;8266301;28;20045;-56
2023/12/23 11:07:46;;;;;;;10.05;1.70;;;;;;;12.38;97.42;99869.66;8265114;28;20050;-56
2023/12/23 11:11:48;;;;;;;9.70;2.33;;;;;;;12.44;96.81;99866.28;8270766;28;20045;-56
2023/12/23 11:15:49;;;;;;;7.22;2.10;;;;;;;12.50;96.93;99873.75;8269161;28;20164;-57
2023/12/23 11:19:51;;;;;;;8.18;1.65;;;;;;;12.54;96.33;99856.97;8263845;28;20432;-56
2023/12/23 11:23:52;;;;;;;7.85;1.67;;;;;;;12.67;95.23;99870.00;8271112;28;20305;-57
2023/12/23 11:27:52;;;;;;;5.53;1.83;;;;;;;12.85;93.81;99851.69;8269756;28;20306;-56
2023/12/23 11:32:11;;;;;;;7.43;1.63;;;;;;;12.94;92.32;99861.50;8258740;28;20638;-55
2023/12/23 11:36:11;;;;;;;9.85;1.83;;;;;;;12.93;91.66;99860.66;8268674;28;20495;-55
2023/12/23 11:40:14;;;;;;;8.00;2.10;;;;;;;12.90;91.43;99843.91;8261557;28;20476;-56
2023/12/23 11:44:15;;;;;;;4.10;1.95;;;;;;;13.02;91.19;99853.41;8258054;28;20458;-56
2023/12/23 11:48:20;;;;;;;7.82;1.70;;;;;;;13.03;91.15;99872.22;8286311;28;20043;-58
2023/12/23 11:52:21;;;;;;;5.93;1.70;;;;;;;13.17;89.89;99867.94;8294546;28;20516;-55
2023/12/23 11:56:22;;;;;;;11.05;2.55;;;;;;;13.19;87.77;99847.75;8297660;28;20407;-57
2023/12/23 12:00:23;;;;;;;6.18;1.45;;;;;;;13.30;87.01;99851.97;8285811;28;20053;-57
2023/12/23 12:04:24;;;;;;;7.78;1.95;;;;;;;13.37;85.81;99853.81;8293605;28;20041;-56
2023/12/23 12:08:26;;;;;;;8.38;1.75;;;;;;;13.47;85.05;99854.47;8298353;28;20041;-55
2023/12/23 12:12:26;;;;;;;6.15;1.15;;;;;;;13.39;84.07;99842.78;8291547;28;20121;-56
2023/12/23 12:16:27;;;;;;;5.18;1.40;;;;;;;13.42;83.93;99850.59;8289525;28;20042;-54
2023/12/23 12:20:27;;;;;;;7.55;1.50;;;;;;;13.49;84.19;99857.84;8294771;28;20050;-56
2023/12/23 12:24:28;;;;;;;8.68;2.60;;;;;;;13.56;82.43;99847.13;8291448;28;20037;-56
2023/12/23 12:28:30;;;;;;;9.13;1.50;;;;;;;13.55;82.65;99846.25;8286489;28;20037;-56
2023/12/23 12:32:30;;;;;;;8.13;1.77;;;;;;;13.59;82.67;99846.78;8282586;28;20057;-57
2023/12/23 12:36:31;;;;;;;4.80;1.10;;;;;;;13.66;82.01;99850.47;8280180;28;20499;-57
2023/12/23 12:40:34;;;;;;;9.57;1.80;;;;;;;13.52;82.77;99845.78;8283412;28;20061;-55
2023/12/23 12:44:35;;;;;;;4.20;1.42;;;;;;;13.61;82.46;99852.88;8281874;28;20373;-56
2023/12/23 12:48:35;;;;;;;8.50;1.45;;;;;;;13.59;81.82;99857.63;8272875;28;20042;-57
2023/12/23 12:52:36;;;;;;;6.22;1.17;;;;;;;13.55;81.97;99853.59;8263674;28;20046;-55
2023/12/23 12:56:39;;;;;;;11.32;1.10;;;;;;;13.58;81.35;99856.78;8289393;28;20124;-57
2023/12/23 13:00:40;;;;;;;6.88;1.40;;;;;;;13.60;81.34;99871.03;8275536;28;20038;-59
2023/12/23 13:04:40;;;;;;;3.58;2.10;;;;;;;13.59;81.57;99863.06;8272272;28;20491;-57
2023/12/23 13:08:41;;;;;;;7.72;1.67;;;;;;;13.46;82.73;99846.50;8286509;28;20120;-55
2023/12/23 13:12:42;;;;;;;5.55;0.93;;;;;;;13.49;82.01;99865.16;8269350;28;20385;-56
2023/12/23 13:16:42;;;;;;;4.18;1.55;;;;;;;13.52;82.17;99872.94;8272069;28;20049;-57
2023/12/23 13:20:43;;;;;;;7.38;1.20;;;;;;;13.54;82.34;99887.19;8272909;28;20130;-57
2023/12/23 13:24:43;;;;;;;7.05;1.10;;;;;;;13.51;83.01;99893.00;8272720;28;20121;-56
2023/12/23 13:28:43;;;;;;;7.10;1.35;;;;;;;13.49;82.06;99901.31;8274725;28;20500;-56
2023/12/23 13:32:44;;;;;;;6.35;1.55;;;;;;;13.44;82.08;99908.25;8265368;28;20053;-56
2023/12/23 13:36:44;;;;;;;5.07;1.02;;;;;;;13.31;82.54;99910.66;8272097;28;20073;-54
2023/12/23 13:40:45;;;;;;;3.55;1.10;;;;;;;13.40;81.32;99905.06;8273777;28;20034;-59
2023/12/23 13:44:46;;;;;;;9.15;1.25;;;;;;;13.40;81.91;99906.91;8272605;28;20035;-55
2023/12/23 13:48:46;;;;;;;6.80;1.17;;;;;;;13.41;81.66;99919.47;8268688;28;20042;-56
2023/12/23 13:52:47;;;;;;;5.72;0.98;;;;;;;13.33;82.50;99927.66;8264998;28;20400;-56
2023/12/23 13:56:50;;;;;;;6.75;1.80;;;;;;;13.34;82.46;99923.91;8271723;28;20042;-57
2023/12/23 14:00:53;;;;;;;7.20;1.00;;;;;;;13.39;81.88;99932.38;8272011;28;20125;-57
2023/12/23 14:04:53;;;;;;;3.22;1.00;;;;;;;13.42;82.33;99932.88;8266947;28;20043;-59
2023/12/23 14:08:54;;;;;;;5.70;1.13;;;;;;;13.40;82.77;99920.50;8270251;28;20042;-57
2023/12/23 14:12:54;;;;;;;12.00;2.13;;;;;;;13.43;82.64;99920.16;8271734;28;20086;-60
2023/12/23 14:16:55;;;;;;;5.63;1.00;;;;;;;13.45;83.01;99934.41;8272577;28;20251;-55
2023/12/23 14:20:55;;;;;;;3.60;1.02;;;;;;;13.47;82.80;99929.63;8267274;28;20715;-59
2023/12/23 14:24:56;;;;;;;6.93;1.20;;;;;;;13.47;82.69;99940.50;8271171;28;20153;-58
2023/12/23 14:28:57;;;;;;;10.45;2.22;;;;;;;13.46;83.36;99938.81;8267508;28;20046;-57
2023/12/23 14:32:58;;;;;;;11.30;1.95;;;;;;;13.44;83.24;99946.28;8278876;28;20041;-57
2023/12/23 14:36:58;;;;;;;7.95;2.72;;;;;;;13.40;84.46;99934.06;8269388;28;20050;-56
2023/12/23 14:40:59;;;;;;;24.35;9.75;;;;;;;13.40;84.50;99940.38;8267558;28;20077;-60
2023/12/23 14:44:59;;;;;;;7.78;1.88;;;;;;;13.45;83.39;99937.13;8269040;28;20045;-57
2023/12/23 14:49:00;;;;;;;5.70;1.55;;;;;;;13.47;83.92;99963.09;8272688;28;20046;-55
2023/12/23 14:53:00;;;;;;;9.38;1.92;;;;;;;13.53;82.62;99953.38;8273249;28;20574;-55
2023/12/23 14:57:01;;;;;;;5.10;1.27;;;;;;;13.56;82.73;99966.63;8267438;28;20524;-56
2023/12/23 15:01:01;;;;;;;12.77;1.67;;;;;;;13.53;83.26;99972.41;8270483;28;20467;-57
2023/12/23 15:05:03;;;;;;;7.32;1.40;;;;;;;13.41;83.79;99965.63;8264896;28;20056;-56
2023/12/23 15:09:04;;;;;;;6.65;1.45;;;;;;;13.39;84.26;99970.41;8269510;28;20277;-56
2023/12/23 15:13:06;;;;;;;8.80;1.50;;;;;;;13.36;84.62;99957.16;8274834;28;20394;-57
2023/12/23 15:17:07;;;;;;;7.97;1.02;;;;;;;13.30;84.79;99961.41;8270493;28;20053;-57
2023/12/23 15:21:07;;;;;;;7.32;1.02;;;;;;;13.39;83.61;99970.41;8259913;28;20061;-57
2023/12/23 15:25:09;;;;;;;6.95;0.70;;;;;;;13.35;83.91;99974.47;8275047;28;20096;-56
2023/12/23 15:29:10;;;;;;;8.35;1.65;;;;;;;13.38;83.20;99974.13;8271414;28;20422;-58
2023/12/23 15:33:10;;;;;;;11.00;1.48;;;;;;;13.37;83.45;99988.72;8267609;28;20212;-57
2023/12/23 15:37:11;;;;;;;7.57;1.20;;;;;;;13.37;83.30;99996.88;8267349;28;20490;-55
2023/12/23 15:41:12;;;;;;;7.13;1.83;;;;;;;13.22;83.95;99998.56;8286499;28;20050;-61
2023/12/23 15:45:12;;;;;;;6.18;1.50;;;;;;;13.32;83.92;100001.94;8267002;28;20144;-59
2023/12/23 15:49:13;;;;;;;8.65;1.67;;;;;;;13.23;84.92;100002.97;8271659;28;20045;-58
2023/12/23 15:53:15;;;;;;;7.00;1.10;;;;;;;13.22;84.59;100007.56;8269786;28;20050;-57
2023/12/23 15:57:16;;;;;;;5.93;1.20;;;;;;;13.19;84.65;100007.06;8272933;28;20041;-58
2023/12/23 16:01:16;;;;;;;5.47;1.05;;;;;;;13.15;84.71;100000.28;8264737;28;20113;-58
2023/12/23 16:05:17;;;;;;;6.43;1.30;;;;;;;13.17;84.68;100018.06;8267964;28;20057;-56
2023/12/23 16:09:18;;;;;;;5.28;1.10;;;;;;;13.22;84.03;100017.56;8247106;28;20042;-55
2023/12/23 16:13:18;;;;;;;4.82;1.38;;;;;;;13.16;84.49;100032.69;8215628;28;20042;-58
2023/12/23 16:17:19;;;;;;;8.15;1.40;;;;;;;13.12;84.84;100025.03;8216900;28;20448;-57
2023/12/23 16:21:19;;;;;;;5.03;1.50;;;;;;;13.14;83.75;100026.56;8218764;28;20700;-56
2023/12/23 16:25:20;;;;;;;9.27;1.25;;;;;;;13.22;82.94;100025.72;8234576;28;20050;-58
2023/12/23 16:29:21;;;;;;;7.85;1.60;;;;;;;13.14;83.43;100041.97;8270370;28;20425;-54
2023/12/23 16:33:21;;;;;;;12.15;1.88;;;;;;;13.15;83.69;100039.09;8268960;28;20495;-56
2023/12/23 16:37:24;;;;;;;5.82;1.30;;;;;;;13.08;84.40;100043.50;8263071;28;20037;-57
2023/12/23 16:41:25;;;;;;;5.32;1.10;;;;;;;13.17;83.86;100030.78;8225318;28;20064;-53
2023/12/23 16:45:26;;;;;;;5.45;0.90;;;;;;;13.18;84.00;100035.22;8213329;28;20057;-54
2023/12/23 16:49:26;;;;;;;8.18;1.95;;;;;;;13.15;84.08;100028.25;8221904;28;20221;-55
2023/12/23 16:53:27;;;;;;;8.68;1.63;;;;;;;13.09;84.38;100041.66;8225997;28;20042;-55
2023/12/23 16:57:27;;;;;;;9.13;2.20;;;;;;;13.10;84.61;100041.50;8200585;28;20401;-56
2023/12/23 17:01:28;;;;;;;9.10;2.45;;;;;;;13.15;84.65;100043.69;8222859;28;20042;-63
2023/12/23 17:05:30;;;;;;;8.23;2.47;;;;;;;13.12;84.62;100046.75;8273903;28;20052;-56
2023/12/23 17:09:32;;;;;;;4.97;1.83;;;;;;;13.18;84.07;100049.63;8265139;28;20353;-58
2023/12/23 17:13:35;;;;;;;7.82;1.55;;;;;;;13.20;84.13;100050.31;8219690;28;20052;-57
2023/12/23 17:17:37;;;;;;;3.53;1.15;;;;;;;13.29;84.12;100049.31;8224348;28;20236;-56
2023/12/23 17:21:37;;;;;;;8.30;1.98;;;;;;;13.30;84.25;100042.00;8224603;28;20074;-54
2023/12/23 17:25:38;;;;;;;5.60;1.50;;;;;;;13.24;84.67;100042.69;8227675;28;20523;-53
2023/12/23 17:29:38;;;;;;;9.70;1.77;;;;;;;13.28;85.34;100038.59;8215431;28;20045;-56
2023/12/23 17:33:39;;;;;;;8.05;2.67;;;;;;;13.08;85.84;100034.50;8217119;28;20062;-54
2023/12/23 17:37:40;;;;;;;8.18;1.50;;;;;;;13.28;85.72;100061.19;8231748;28;20027;-55
2023/12/23 17:41:40;;;;;;;5.55;0.90;;;;;;;13.34;85.35;100044.22;8273822;28;20331;-57
2023/12/23 17:45:41;;;;;;;7.32;1.85;;;;;;;13.24;85.88;100050.84;8269160;28;20419;-57
2023/12/23 17:49:43;;;;;;;6.72;1.30;;;;;;;13.28;85.42;100049.47;8282378;28;20411;-62
2023/12/23 17:53:43;;;;;;;5.30;1.38;;;;;;;13.34;85.08;100027.94;8259141;28;20467;-57
2023/12/23 17:57:44;;;;;;;3.65;1.17;;;;;;;13.33;85.33;100038.97;8269409;28;20108;-57
2023/12/23 18:01:45;;;;;;;6.53;1.85;;;;;;;13.22;85.46;100031.16;8270751;28;20125;-56
2023/12/23 18:05:45;;;;;;;3.08;1.13;;;;;;;13.27;85.24;100037.75;8264294;28;20049;-57
2023/12/23 18:09:46;;;;;;;2.97;1.10;;;;;;;13.23;85.82;100046.41;8268253;28;20038;-56
2023/12/23 18:13:48;;;;;;;3.78;1.55;;;;;;;13.19;85.99;100039.63;8262847;28;20577;-58
2023/12/23 18:17:49;;;;;;;6.13;1.40;;;;;;;13.23;85.62;100040.97;8267752;28;20334;-56
2023/12/23 18:21:49;;;;;;;8.13;2.40;;;;;;;13.30;85.08;100047.44;8265244;28;20033;-58
2023/12/23 18:25:49;;;;;;;5.05;1.50;;;;;;;13.29;84.48;100040.28;8268847;28;20128;-57
2023/12/23 18:29:50;;;;;;;6.72;1.55;;;;;;;13.30;84.41;100047.44;8272915;28;20042;-58
2023/12/23 18:33:50;;;;;;;8.00;1.40;;;;;;;13.29;84.29;100040.28;8266374;28;20035;-56
2023/12/23 18:37:51;;;;;;;4.57;1.23;;;;;;;13.34;83.85;100046.94;8268496;28;20516;-56
2023/12/23 18:41:52;;;;;;;6.07;1.80;;;;;;;13.38;83.48;100033.84;8260106;28;20181;-57